Terminal Aerodrome Forecast
Issued by NWS

Home | Current Version | Previous Version | Text Only | Print | Product List | Glossary On
Versions: 1 2 3 4 5 6 7 8 9 10 11 12 13 14 15
000
FTAK31 PANC 221745
TAFAHO
TAF
PAHO 221745Z 2218/2318 09015KT P6SM -RA OVC045
      TEMPO 2218/2222 09015G25KT
     FM230300 08006KT P6SM VCSH BKN045=

USA.gov is the U.S. government's official web portal to all federal, state and local government web resources and services.